Flight Track Log - Related Links

Times and Time Zones

All times are in EDT time to prevent confusion due to time zone crossing. See the DAL268 flight status page for this flight to view local times or setup timezone preferences in your user account.

Time Position Orientation Groundspeed Altitude Reporting Facility
EDT Latitude Longitude Course Direction KTS MPH feet Rate Location/Type
Wed 02:42:51 PM 37.6110 -122.3780 360° North 100 115  Level FlightAware ADS-B
Wed 02:43:11 PM 37.6230 -122.3700 28° Northeast 175 201 1,909 Level FlightAware ADS-B
Wed 02:43:35 PM 37.6390 -122.3580 31° Northeast 158 182 1,400 3,273 Climbing FlightAware ADS-B
Wed 02:43:44 PM 37.6440 -122.3520 44° Northeast 160 184 1,800 2,000 Climbing FlightAware ADS-B
Wed 02:44:05 PM 37.6550 -122.3350 51° Northeast 187 215 2,400 1,610 Climbing FlightAware ADS-B
Wed 02:44:25 PM 37.6670 -122.3170 50° Northeast 211 243 2,900 1,875 Climbing FlightAware ADS-B
Wed 02:44:37 PM 37.6750 -122.3060 47° Northeast 223 257 3,400 1,800 Climbing FlightAware ADS-B
Wed 02:44:55 PM 37.6870 -122.2860 53° Northeast 250 288 3,800 2,267 Climbing FlightAware ADS-B
Wed 02:45:22 PM 37.7080 -122.2550 49° Northeast 266 306 5,100 3,261 Climbing FlightAware ADS-B
Wed 02:45:41 PM 37.7230 -122.2320 50° Northeast 264 304 6,300 3,385 Climbing FlightAware ADS-B
Wed 02:46:01 PM 37.7390 -122.2080 50° Northeast 270 311 7,300 3,000 Climbing FlightAware ADS-B
Wed 02:46:23 PM 37.7570 -122.1810 50° Northeast 275 316 8,400 3,000 Climbing FlightAware ADS-B
Wed 02:46:45 PM 37.7740 -122.1550 50° Northeast 279 321 9,500 2,509 Climbing FlightAware ADS-B
Wed 02:47:18 PM 37.8020 -122.1130 50° Northeast 296 341 10,700 1,714 Climbing FlightAware ADS-B
Wed 02:47:41 PM 37.8280 -122.0840 41° Northeast 327 376 11,100 1,091 Climbing FlightAware ADS-B
Wed 02:48:13 PM 37.8720 -122.0470 34° Northeast 361 415 11,700 1,059 Climbing FlightAware ADS-B
Wed 02:48:49 PM 37.9240 -122.0000 35° Northeast 398 458 12,300 1,667 Climbing FlightAware ADS-B
Wed 02:49:25 PM 37.9790 -121.9520 35° Northeast 406 467 13,700 2,417 Climbing FlightAware ADS-B
Wed 02:50:01 PM 38.0350 -121.9040 34° Northeast 414 476 15,200 2,382 Climbing FlightAware ADS-B
Wed 02:50:33 PM 38.0870 -121.8600 34° Northeast 422 486 16,400 2,229 Climbing FlightAware ADS-B
Wed 02:51:11 PM 38.1500 -121.8060 34° Northeast 429 494 17,800 2,083 Climbing FlightAware ADS-B
Wed 02:51:45 PM 38.2050 -121.7580 34° Northeast 436 502 18,900 1,971 Climbing FlightAware ADS-B
Wed 02:52:21 PM 38.2670 -121.7050 34° Northeast 444 511 20,100 1,941 Climbing FlightAware ADS-B
Wed 02:52:53 PM 38.3190 -121.6600 34° Northeast 449 517 21,100 1,886 Climbing FlightAware ADS-B
Wed 02:53:31 PM 38.3850 -121.6020 35° Northeast 454 522 22,300 1,784 Climbing FlightAware ADS-B
Wed 02:54:07 PM 38.4460 -121.5410 38° Northeast 464 534 23,300 1,543 Climbing FlightAware ADS-B
Wed 02:54:41 PM 38.4930 -121.4700 50° Northeast 474 545 24,100 1,500 Climbing FlightAware ADS-B
Wed 02:55:15 PM 38.5390 -121.3910 53° Northeast 480 552 25,000 1,500 Climbing FlightAware ADS-B
Wed 02:55:49 PM 38.5840 -121.3120 54° Northeast 484 557 25,800 857 Climbing FlightAware ADS-B
Wed 02:56:25 PM 38.6320 -121.2280 54° Northeast 489 563 26,000 185 Climbing FlightAware ADS-B
Wed 02:56:54 PM 38.6707 -121.1610 53° Northeast 490 564 26,000  Level FlightAware ADS-B
Wed 02:57:33 PM 38.7220 -121.0730 53° Northeast 486 559 26,000 480 Level FlightAware ADS-B
Wed 02:58:09 PM 38.7700 -120.9890 54° Northeast 488 562 26,600 1,500 Climbing FlightAware ADS-B
Wed 02:58:45 PM 38.8190 -120.9040 53° Northeast 482 555 27,800 1,859 Climbing FlightAware ADS-B
Wed 02:59:20 PM 38.8630 -120.8270 54° Northeast 478 550 28,800 1,739 Climbing FlightAware ADS-B
Wed 02:59:54 PM 38.9090 -120.7490 53° Northeast 476 548 29,800 1,690 Climbing FlightAware ADS-B
Wed 03:00:31 PM 38.9570 -120.6660 53° Northeast 474 545 30,800 1,565 Climbing FlightAware ADS-B
Wed 03:01:03 PM 38.9990 -120.5930 53° Northeast 472 543 31,600 1,455 Climbing FlightAware ADS-B
Wed 03:01:37 PM 39.0440 -120.5160 53° Northeast 469 540 32,400 1,455 Climbing FlightAware ADS-B
Wed 03:02:09 PM 39.0850 -120.4450 53° Northeast 467 537 33,200 1,406 Climbing FlightAware ADS-B
Wed 03:02:41 PM 39.1250 -120.3740 54° Northeast 465 535 33,900 1,391 Climbing FlightAware ADS-B
Wed 03:03:18 PM 39.1730 -120.2900 54° Northeast 461 531 34,800 1,397 Climbing FlightAware ADS-B
Wed 03:03:54 PM 39.2190 -120.2100 53° Northeast 458 527 35,600 1,182 Climbing FlightAware ADS-B
Wed 03:04:24 PM 39.2550 -120.1460 54° Northeast 455 524 36,100 971 Climbing FlightAware ADS-B
Wed 03:05:02 PM 39.3010 -120.0640 54° Northeast 455 524 36,700 730 Climbing FlightAware ADS-B
Wed 03:05:38 PM 39.3480 -119.9820 53° Northeast 458 527 37,000 250 Climbing FlightAware ADS-B
Wed 03:06:14 PM 39.3920 -119.9040 54° Northeast 461 531 37,000  Level FlightAware ADS-B
Wed 03:06:46 PM 39.4330 -119.8320 54° Northeast 465 535 37,000  Level FlightAware ADS-B
Wed 03:07:22 PM 39.4780 -119.7510 54° Northeast 467 537 37,000  Level FlightAware ADS-B
Wed 03:07:56 PM 39.5210 -119.6740 54° Northeast 466 536 37,000  Level FlightAware ADS-B
Wed 03:08:33 PM 39.5670 -119.5920 54° Northeast 467 537 37,000  Level FlightAware ADS-B
Wed 03:09:10 PM 39.6150 -119.5060 54° Northeast 468 539 37,000  Level FlightAware ADS-B
Wed 03:09:44 PM 39.6570 -119.4300 54° Northeast 468 539 37,000  Level FlightAware ADS-B
Wed 03:10:19 PM 39.7020 -119.3500 54° Northeast 469 540 37,000  Level FlightAware ADS-B
Wed 03:10:56 PM 39.7490 -119.2650 54° Northeast 470 541 37,000  Level FlightAware ADS-B
Wed 03:11:25 PM 39.7840 -119.2010 55° Northeast 470 541 37,000  Level FlightAware ADS-B
Wed 03:12:00 PM 39.8300 -119.1170 54° Northeast 471 542 37,000  Level FlightAware ADS-B
Wed 03:12:33 PM 39.8700 -119.0450 54° Northeast 473 544 37,000  Level FlightAware ADS-B
Wed 03:13:10 PM 39.9190 -118.9550 55° Northeast 473 544 37,000  Level FlightAware ADS-B
Wed 03:13:46 PM 39.9650 -118.8730 54° Northeast 474 545 37,000  Level FlightAware ADS-B
Wed 03:14:22 PM 40.0100 -118.7900 55° Northeast 475 547 37,000  Level FlightAware ADS-B
Wed 03:14:56 PM 40.0530 -118.7100 55° Northeast 476 548 37,000  Level FlightAware ADS-B
Wed 03:15:32 PM 40.1000 -118.6240 54° Northeast 476 548 37,000  Level FlightAware ADS-B
Wed 03:16:02 PM 40.1310 -118.5520 61° Northeast 483 556 37,000  Level FlightAware ADS-B
Wed 03:16:40 PM 40.1630 -118.4450 69° East 487 560 37,000  Level FlightAware ADS-B
Wed 03:17:14 PM 40.1880 -118.3530 70° East 488 562 37,000  Level FlightAware ADS-B
Wed 03:17:48 PM 40.2130 -118.2580 71° East 490 564 37,000  Level FlightAware ADS-B
Wed 03:18:26 PM 40.2420 -118.1520 70° East 492 566 37,000  Level FlightAware ADS-B
Wed 03:19:09 PM 40.2710 -118.0460 70° East 492 566 37,000  Level FlightAware ADS-B
Wed 03:19:34 PM 40.2930 -117.9650 70° East 495 570 37,000  Level FlightAware ADS-B
Wed 03:20:14 PM 40.3200 -117.8690 70° East 495 570 37,000  Level FlightAware ADS-B
Wed 03:20:50 PM 40.3430 -117.7820 71° East 495 570 37,000  Level FlightAware ADS-B
Wed 03:21:26 PM 40.3670 -117.6960 70° East 495 570 37,000  Level FlightAware ADS-B
Wed 03:22:00 PM 40.3900 -117.6140 70° East 495 570 37,000  Level FlightAware ADS-B
Wed 03:22:37 PM 40.4150 -117.5250 70° East 495 570 37,000  Level FlightAware ADS-B
Wed 03:23:13 PM 40.4390 -117.4390 70° East 495 570 37,000  Level FlightAware ADS-B
Wed 03:23:49 PM 40.4630 -117.3520 70° East 495 570 37,000  Level FlightAware ADS-B
Wed 03:24:26 PM 40.4870 -117.2630 70° East 495 570 37,000  Level FlightAware ADS-B
Wed 03:25:02 PM 40.5110 -117.1770 70° East 495 570 37,000  Level FlightAware ADS-B
Wed 03:25:38 PM 40.5350 -117.0900 70° East 495 570 37,000  Level FlightAware ADS-B
Wed 03:26:14 PM 40.5590 -117.0030 70° East 495 570 37,000  Level FlightAware ADS-B
Wed 03:26:50 PM 40.5830 -116.9170 70° East 495 570 37,000  Level FlightAware ADS-B
Wed 03:27:26 PM 40.6070 -116.8300 70° East 495 570 37,000  Level FlightAware ADS-B
Wed 03:28:02 PM 40.6310 -116.7430 70° East 495 570 37,000  Level FlightAware ADS-B
Wed 03:28:39 PM 40.6560 -116.6540 70° East 495 570 37,000  Level FlightAware ADS-B
Wed 03:29:16 PM 40.7704 -116.2770 68° East 518 596 37,000  Level FlightAware ADS-B
Wed 03:29:46 PM 40.8039 -116.1930 62° Northeast 519 597 37,000  Level FlightAware ADS-B
Wed 03:30:16 PM 40.8375 -116.1080 62° Northeast 520 598 37,000  Level FlightAware ADS-B
Wed 03:30:47 PM 40.8712 -116.0220 63° Northeast 521 600 37,000  Level FlightAware ADS-B
Wed 03:31:26 PM 40.9142 -115.9130 62° Northeast 521 600 37,000  Level FlightAware ADS-B
Wed 03:31:58 PM 40.9499 -115.8220 63° Northeast 524 603 37,000  Level FlightAware ADS-B
Wed 03:32:51 PM 41.0094 -115.6720 62° Northeast 526 605 37,000  Level FlightAware ADS-B
Wed 03:33:23 PM 41.0463 -115.5790 62° Northeast 527 606 37,000  Level FlightAware ADS-B
Wed 03:34:28 PM 41.1198 -115.3920 62° Northeast 527 606 37,000  Level FlightAware ADS-B
Wed 03:35:01 PM 41.1565 -115.2980 63° Northeast 527 606 37,000  Level FlightAware ADS-B
Wed 03:35:18 PM 41.1761 -115.2500 62° Northeast 527 606 37,000  Level FlightAware ADS-B
Wed 03:35:24 PM 41.1835 -115.2330 60° Northeast 526 605 37,000  Level FlightAware ADS-B
Wed 03:35:29 PM 41.1893 -115.2220 55° Northeast 525 604 37,000  Level FlightAware ADS-B
Wed 03:35:59 PM 41.2330 -115.1430 54° Northeast 524 603 37,000  Level FlightAware ADS-B
Wed 03:36:17 PM 41.2576 -115.0950 56° Northeast 526 605 37,000  Level FlightAware ADS-B
Wed 03:36:28 PM 41.2703 -115.0650 61° Northeast 529 609 37,000  Level FlightAware ADS-B
Wed 03:36:40 PM 41.2825 -115.0280 66° East 530 610 37,000  Level FlightAware ADS-B
Wed 03:36:54 PM 41.2931 -114.9840 72° East 532 612 37,000  Level FlightAware ADS-B
Wed 03:37:07 PM 41.2995 -114.9440 78° East 533 613 37,000  Level FlightAware ADS-B
Wed 03:37:15 PM 41.3021 -114.9170 83° East 532 612 37,000  Level FlightAware ADS-B
Wed 03:37:49 PM 41.3120 -114.8260 82° East 533 613 37,000  Level FlightAware ADS-B
Wed 03:37:57 PM 41.3128 -114.7820 89° East 532 612 37,000  Level FlightAware ADS-B
Wed 03:38:29 PM 41.3204 -114.6790 84° East 534 615 37,000  Level FlightAware ADS-B
Wed 03:39:03 PM 41.3286 -114.5660 84° East 535 616 37,000  Level FlightAware ADS-B
Wed 03:39:34 PM 41.3356 -114.4660 85° East 535 616 37,000  Level FlightAware ADS-B
Wed 03:40:04 PM 41.3424 -114.3680 85° East 531 611 37,000  Level FlightAware ADS-B
Wed 03:40:34 PM 41.3492 -114.2700 85° East 528 608 37,000  Level FlightAware ADS-B
Wed 03:41:04 PM 41.3557 -114.1730 85° East 527 606 37,000  Level FlightAware ADS-B
Wed 03:41:35 PM 41.3623 -114.0740 85° East 528 608 37,000  Level FlightAware ADS-B
Wed 03:42:05 PM 41.3688 -113.9760 85° East 531 611 37,000  Level FlightAware ADS-B
Wed 03:42:35 PM 41.3753 -113.8770 85° East 532 612 37,000  Level FlightAware ADS-B
Wed 03:43:06 PM 41.3817 -113.7790 85° East 534 615 37,000  Level FlightAware ADS-B
Wed 03:43:37 PM 41.3882 -113.6770 85° East 536 617 37,000  Level FlightAware ADS-B
Wed 03:44:07 PM 41.3946 -113.5780 85° East 537 618 37,000  Level FlightAware ADS-B
Wed 03:44:39 PM 41.4012 -113.4730 85° East 539 620 37,000  Level FlightAware ADS-B
Wed 03:45:09 PM 41.4073 -113.3730 85° East 541 623 37,000  Level FlightAware ADS-B
Wed 03:45:39 PM 41.4134 -113.2730 85° East 540 621 37,000  Level FlightAware ADS-B
Wed 03:46:10 PM 41.4194 -113.1740 85° East 540 621 37,000  Level FlightAware ADS-B
Wed 03:46:40 PM 41.4253 -113.0730 86° East 540 621 37,000  Level FlightAware ADS-B
Wed 03:47:12 PM 41.4313 -112.9690 86° East 541 623 37,000  Level FlightAware ADS-B
Wed 03:47:49 PM 41.4384 -112.8440 86° East 541 623 37,000  Level FlightAware ADS-B
Wed 03:48:25 PM 41.4450 -112.7260 86° East 540 621 37,000  Level FlightAware ADS-B
Wed 03:48:55 PM 41.4505 -112.6240 86° East 538 619 37,000  Level FlightAware ADS-B
Wed 03:49:26 PM 41.4559 -112.5250 86° East 540 621 37,000  Level FlightAware ADS-B
Wed 03:49:59 PM 41.4617 -112.4160 86° East 542 624 37,000  Level FlightAware ADS-B
Wed 03:50:29 PM 41.4670 -112.3150 86° East 544 626 37,000  Level FlightAware ADS-B
Wed 03:51:01 PM 41.4725 -112.2080 86° East 547 629 37,000  Level FlightAware ADS-B
Wed 03:51:31 PM 41.4777 -112.1040 86° East 548 631 37,000  Level FlightAware ADS-B
Wed 03:52:02 PM 41.4829 -112.0000 86° East 550 633 37,000  Level FlightAware ADS-B
Wed 03:52:33 PM 41.4880 -111.8950 86° East 554 638 37,000  Level FlightAware ADS-B
Wed 03:53:04 PM 41.4930 -111.7900 86° East 555 639 37,000  Level FlightAware ADS-B
Wed 03:53:39 PM 41.4986 -111.6700 86° East 558 642 37,000  Level FlightAware ADS-B
Wed 03:54:09 PM 41.5033 -111.5680 86° East 559 643 37,000  Level FlightAware ADS-B
Wed 03:54:41 PM 41.5082 -111.4590 87° East 560 644 37,000  Level FlightAware ADS-B
Wed 03:55:11 PM 41.5127 -111.3550 87° East 562 647 37,000  Level FlightAware ADS-B
Wed 03:55:43 PM 41.5174 -111.2440 87° East 562 647 37,000  Level FlightAware ADS-B
Wed 03:56:14 PM 41.5219 -111.1370 87° East 563 648 37,000  Level FlightAware ADS-B
Wed 03:56:44 PM 41.5262 -111.0330 87° East 562 647 37,000 492 Level FlightAware ADS-B
Wed 03:57:15 PM 41.5303 -110.9290 87° East 559 643 37,500 1,377 Climbing FlightAware ADS-B
Wed 03:57:45 PM 41.5344 -110.8260 87° East 545 627 38,400 1,475 Climbing FlightAware ADS-B
Wed 03:58:16 PM 41.5383 -110.7230 87° East 534 615 39,000 500 Climbing FlightAware ADS-B
Wed 03:58:57 PM 41.5430 -110.5890 87° East 527 606 39,000  Level FlightAware ADS-B
Wed 03:59:31 PM 41.5470 -110.4810 87° East 524 603 39,000  Level FlightAware ADS-B
Wed 04:00:07 PM 41.5510 -110.3650 87° East 528 608 39,000  Level FlightAware ADS-B
Wed 04:00:41 PM 41.5550 -110.2530 87° East 527 606 39,000  Level FlightAware ADS-B
Wed 04:01:20 PM 41.5590 -110.1440 87° East 528 608 39,000  Level FlightAware ADS-B
Wed 04:01:56 PM 41.5630 -110.0440 87° East 528 608 39,000  Level FlightAware ADS-B
Wed 04:02:33 PM 41.5670 -109.9420 87° East 528 608 39,000  Level FlightAware ADS-B
Wed 04:03:09 PM 41.5710 -109.8420 87° East 528 608 39,000  Level FlightAware ADS-B
Wed 04:03:45 PM 41.5750 -109.7420 87° East 528 608 39,000  Level FlightAware ADS-B
Wed 04:04:21 PM 41.5790 -109.6420 87° East 528 608 39,000  Level FlightAware ADS-B
Wed 04:04:57 PM 41.5830 -109.5420 87° East 528 608 39,000  Level FlightAware ADS-B
Wed 04:05:45 PM 41.5880 -109.4090 87° East 528 608 39,000  Level FlightAware ADS-B
Wed 04:06:21 PM 41.5920 -109.3100 87° East 528 608 39,000  Level FlightAware ADS-B
Wed 04:06:57 PM 41.5960 -109.2100 87° East 528 608 39,000  Level FlightAware ADS-B
Wed 04:07:32 PM 41.5990 -109.1130 88° East 528 608 39,000  Level FlightAware ADS-B
Wed 04:08:08 PM 41.6030 -109.0130 87° East 528 608 39,000  Level FlightAware ADS-B
Wed 04:08:44 PM 41.6070 -108.9130 87° East 528 608 39,000  Level FlightAware ADS-B
Wed 04:09:20 PM 41.6110 -108.8130 87° East 528 608 39,000  Level FlightAware ADS-B
Wed 04:09:56 PM 41.6150 -108.7130 87° East 528 608 39,000  Level FlightAware ADS-B
Wed 04:10:32 PM 41.6190 -108.6130 87° East 528 608 39,000  Level FlightAware ADS-B
Wed 04:11:34 PM 41.6969 -108.1328 87° East 530 610 39,000  Level Denver Center
Wed 04:12:36 PM 41.7222 -107.9472 80° East 530 610 39,000  Level Denver Center
Wed 04:13:38 PM 41.7483 -107.7294 81° East 532 612 39,000  Level Denver Center
Wed 04:19:52 PM 41.8930 -106.5140 81° East 527 606 39,000  Level FlightAware ADS-B
Wed 04:20:28 PM 41.9060 -106.3970 81° East 527 606 39,000  Level FlightAware ADS-B
Wed 04:21:04 PM 41.9190 -106.2830 81° East 525 604 39,000  Level FlightAware ADS-B
Wed 04:21:40 PM 41.9310 -106.1700 82° East 524 603 39,000  Level FlightAware ADS-B
Wed 04:22:16 PM 41.9450 -106.0480 81° East 523 602 39,000  Level FlightAware ADS-B
Wed 04:22:50 PM 41.9560 -105.9520 81° East 521 600 39,000  Level FlightAware ADS-B
Wed 04:23:26 PM 41.9690 -105.8260 82° East 521 600 39,000  Level FlightAware ADS-B
Wed 04:24:03 PM 41.9810 -105.7120 82° East 520 598 39,000  Level FlightAware ADS-B
Wed 04:24:42 PM 41.9940 -105.5830 82° East 518 596 39,000  Level FlightAware ADS-B
Wed 04:25:14 PM 42.0050 -105.4870 81° East 516 594 39,000  Level FlightAware ADS-B
Wed 04:25:49 PM 42.0170 -105.3690 82° East 516 594 39,000  Level FlightAware ADS-B
Wed 04:26:28 PM 42.0290 -105.2460 82° East 516 594 39,000  Level FlightAware ADS-B
Wed 04:27:00 PM 42.0400 -105.1450 82° East 516 594 39,000  Level FlightAware ADS-B
Wed 04:27:35 PM 42.0510 -105.0350 82° East 520 598 39,000  Level FlightAware ADS-B
Wed 04:28:10 PM 42.0620 -104.9200 83° East 523 602 39,000  Level FlightAware ADS-B
Wed 04:28:47 PM 42.0730 -104.8040 83° East 525 604 39,000  Level FlightAware ADS-B
Wed 04:29:17 PM 42.0830 -104.7040 82° East 527 606 39,000  Level FlightAware ADS-B
Wed 04:29:56 PM 42.0950 -104.5760 83° East 529 609 39,000  Level FlightAware ADS-B
Wed 04:30:31 PM 42.1060 -104.4630 82° East 528 608 39,000  Level FlightAware ADS-B
Wed 04:31:08 PM 42.1170 -104.3440 83° East 528 608 39,000  Level FlightAware ADS-B
Wed 04:31:41 PM 42.1270 -104.2360 83° East 528 608 39,000  Level FlightAware ADS-B
Wed 04:32:18 PM 42.1380 -104.1160 83° East 530 610 39,000  Level FlightAware ADS-B
Wed 04:32:48 PM 42.1470 -104.0160 83° East 531 611 39,000  Level FlightAware ADS-B
Wed 04:33:25 PM 42.1580 -103.8950 83° East 531 611 39,000  Level FlightAware ADS-B
Wed 04:34:02 PM 42.1690 -103.7760 83° East 531 611 39,000  Level FlightAware ADS-B
Wed 04:34:55 PM 42.1830 -103.6150 83° East 531 611 39,000  Level FlightAware ADS-B
Wed 04:35:31 PM 42.1930 -103.5140 82° East 531 611 39,000  Level FlightAware ADS-B
Wed 04:36:07 PM 42.2020 -103.4140 83° East 531 611 39,000  Level FlightAware ADS-B
Wed 04:36:43 PM 42.2110 -103.3130 83° East 531 611 39,000  Level FlightAware ADS-B
Wed 04:37:19 PM 42.2200 -103.2120 83° East 531 611 39,000  Level FlightAware ADS-B
Wed 04:37:56 PM 42.2290 -103.1090 83° East 531 611 39,000  Level FlightAware ADS-B
Wed 04:38:34 PM 42.2390 -103.0020 83° East 531 611 39,000  Level FlightAware ADS-B
Wed 04:39:10 PM 42.2480 -102.9010 83° East 531 611 39,000  Level FlightAware ADS-B
Wed 04:39:46 PM 42.2570 -102.8010 83° East 531 611 39,000  Level FlightAware ADS-B
Wed 04:40:22 PM 42.2660 -102.7000 83° East 531 611 39,000  Level FlightAware ADS-B
Wed 04:40:58 PM 42.2760 -102.5990 82° East 531 611 39,000  Level FlightAware ADS-B
Wed 04:41:34 PM 42.2850 -102.4980 83° East 531 611 39,000  Level FlightAware ADS-B
Wed 04:42:10 PM 42.2940 -102.3970 83° East 531 611 39,000  Level FlightAware ADS-B
Wed 04:42:46 PM 42.3030 -102.2960 83° East 531 611 39,000  Level FlightAware ADS-B
Wed 04:43:23 PM 42.3120 -102.1930 83° East 531 611 39,000  Level FlightAware ADS-B
Wed 04:43:59 PM 42.3220 -102.0920 82° East 531 611 39,000  Level FlightAware ADS-B
Wed 04:44:38 PM 42.3333 -101.7144 82° East 527 606 39,000  Level Denver Center
Wed 04:45:40 PM 42.3492 -101.4961 84° East 525 604 39,000  Level Denver Center
Wed 04:46:42 PM 42.3611 -101.3092 85° East 522 601 39,000  Level Denver Center
Wed 04:47:44 PM 42.3725 -101.1231 85° East 520 598 39,000  Level Denver Center
Wed 04:53:24 PM 42.4403 -99.9933 85° East 517 595 39,000  Level FlightAware ADS-B
Wed 04:53:56 PM 42.4461 -99.8888 86° East 518 596 39,000  Level FlightAware ADS-B
Wed 04:54:26 PM 42.4513 -99.7911 86° East 518 596 39,000  Level FlightAware ADS-B
Wed 04:54:57 PM 42.4565 -99.6930 86° East 519 597 39,000  Level FlightAware ADS-B
Wed 04:55:27 PM 42.4616 -99.5937 86° East 520 598 39,000  Level FlightAware ADS-B
Wed 04:55:58 PM 42.4666 -99.4949 86° East 520 598 39,000  Level FlightAware ADS-B
Wed 04:56:29 PM 42.4717 -99.3935 86° East 520 598 39,000  Level FlightAware ADS-B
Wed 04:57:31 PM 42.4816 -99.1920 86° East 520 598 39,000  Level FlightAware ADS-B
Wed 04:58:01 PM 42.4862 -99.0942 86° East 521 600 39,000  Level FlightAware ADS-B
Wed 04:58:32 PM 42.4908 -98.9962 86° East 521 600 39,000  Level FlightAware ADS-B
Wed 04:59:02 PM 42.4953 -98.8978 86° East 521 600 39,000  Level FlightAware ADS-B
Wed 05:01:20 PM 42.5147 -98.4510 86° East 518 596 39,000  Level FlightAware ADS-B
Wed 05:01:50 PM 42.5187 -98.3519 87° East 518 596 39,000  Level FlightAware ADS-B
Wed 05:02:21 PM 42.5226 -98.2541 87° East 517 595 39,000  Level FlightAware ADS-B
Wed 05:02:51 PM 42.5264 -98.1575 87° East 517 595 39,000  Level FlightAware ADS-B
Wed 05:03:22 PM 42.5304 -98.0547 87° East 516 594 39,000  Level FlightAware ADS-B
Wed 05:03:53 PM 42.5340 -97.9569 87° East 516 594 39,000  Level FlightAware ADS-B
Wed 05:04:23 PM 42.5376 -97.8598 87° East 516 594 39,000  Level FlightAware ADS-B
Wed 05:04:53 PM 42.5411 -97.7626 87° East 516 594 39,000  Level FlightAware ADS-B
Wed 05:05:24 PM 42.5445 -97.6638 87° East 516 594 39,000  Level FlightAware ADS-B
Wed 05:05:54 PM 42.5479 -97.5668 87° East 517 595 39,000  Level FlightAware ADS-B
Wed 05:06:25 PM 42.5511 -97.4681 87° East 517 595 39,000  Level FlightAware ADS-B
Wed 05:06:55 PM 42.5544 -97.3693 87° East 517 595 39,000  Level FlightAware ADS-B
Wed 05:07:25 PM 42.5574 -97.2721 88° East 517 595 39,000  Level FlightAware ADS-B
Wed 05:07:55 PM 42.5603 -97.1749 88° East 516 594 39,000  Level FlightAware ADS-B
Wed 05:08:26 PM 42.5632 -97.0778 88° East 516 594 39,000  Level FlightAware ADS-B
Wed 05:08:56 PM 42.5661 -96.9800 88° East 514 592 39,000  Level FlightAware ADS-B
Wed 05:09:26 PM 42.5688 -96.8829 88° East 514 592 39,000  Level FlightAware ADS-B
Wed 05:09:57 PM 42.5715 -96.7831 88° East 513 590 39,000  Level FlightAware ADS-B
Wed 05:10:27 PM 42.5741 -96.6870 88° East 513 590 39,000  Level FlightAware ADS-B
Wed 05:10:58 PM 42.5766 -96.5869 88° East 513 590 39,000  Level FlightAware ADS-B
Wed 05:11:29 PM 42.5790 -96.4892 88° East 512 589 39,000  Level FlightAware ADS-B
Wed 05:11:59 PM 42.5813 -96.3932 88° East 512 589 39,000  Level FlightAware ADS-B
Wed 05:12:30 PM 42.5836 -96.2944 88° East 511 588 39,000  Level FlightAware ADS-B
Wed 05:13:01 PM 42.5858 -96.1947 88° East 510 587 39,000  Level FlightAware ADS-B
Wed 05:13:32 PM 42.5879 -96.0948 88° East 511 588 39,000  Level FlightAware ADS-B
Wed 05:14:03 PM 42.5899 -95.9980 88° East 511 588 39,000  Level FlightAware ADS-B
Wed 05:14:34 PM 42.5918 -95.8993 88° East 511 588 39,000  Level FlightAware ADS-B
Wed 05:15:04 PM 42.5936 -95.8016 89° East 510 587 39,000  Level FlightAware ADS-B
Wed 05:15:34 PM 42.5953 -95.7059 89° East 510 587 39,000  Level FlightAware ADS-B
Wed 05:16:05 PM 42.5970 -95.6090 89° East 509 586 39,000  Level FlightAware ADS-B
Wed 05:16:35 PM 42.5985 -95.5131 89° East 509 586 39,000  Level FlightAware ADS-B
Wed 05:17:05 PM 42.6000 -95.4163 89° East 509 586 39,000  Level FlightAware ADS-B
Wed 05:17:35 PM 42.6013 -95.3206 89° East 509 586 39,000  Level FlightAware ADS-B
Wed 05:18:06 PM 42.6027 -95.2231 89° East 510 587 39,000  Level FlightAware ADS-B
Wed 05:18:37 PM 42.6039 -95.1241 89° East 509 586 39,000  Level FlightAware ADS-B
Wed 05:19:08 PM 42.6051 -95.0245 89° East 508 585 39,000  Level FlightAware ADS-B
Wed 05:19:38 PM 42.6061 -94.9281 89° East 508 585 39,000  Level FlightAware ADS-B
Wed 05:20:09 PM 42.6071 -94.8307 89° East 507 583 39,000  Level FlightAware ADS-B
Wed 05:20:40 PM 42.6081 -94.7313 89° East 507 583 39,000  Level FlightAware ADS-B
Wed 05:21:10 PM 42.6089 -94.6360 89° East 505 581 39,000  Level FlightAware ADS-B
Wed 05:21:41 PM 42.6096 -94.5403 89° East 505 581 39,000  Level FlightAware ADS-B
Wed 05:22:11 PM 42.6102 -94.4443 89° East 504 580 39,000  Level FlightAware ADS-B
Wed 05:22:43 PM 42.6108 -94.3442 89° East 505 581 39,000  Level FlightAware ADS-B
Wed 05:23:13 PM 42.6114 -94.2485 89° East 505 581 39,000  Level FlightAware ADS-B
Wed 05:23:44 PM 42.6123 -94.1521 89° East 505 581 39,000  Level FlightAware ADS-B
Wed 05:24:17 PM 42.6133 -94.0478 89° East 506 582 39,000  Level FlightAware ADS-B
Wed 05:24:48 PM 42.6141 -93.9475 89° East 505 581 39,000  Level FlightAware ADS-B
Wed 05:25:19 PM 42.6147 -93.8511 89° East 505 581 39,000  Level FlightAware ADS-B
Wed 05:25:25 PM 42.6146 -93.8577 269° West 505 581 39,000  Level FlightAware ADS-B (LPVM)
Wed 05:25:59 PM 42.6150 -93.7260 90° East 505 581 39,000  Level FlightAware ADS-B
Wed 05:26:22 PM 42.6157 -93.6503 89° East 505 581 39,000  Level FlightAware ADS-B
Wed 05:27:11 PM 42.6160 -93.4990 90° East 506 582 39,000  Level FlightAware ADS-B
Wed 05:27:29 PM 42.6163 -93.4491 89° East 506 582 39,000  Level FlightAware ADS-B (LPVM)
Wed 05:28:19 PM 42.6170 -93.2830 90° East 505 581 39,000  Level FlightAware ADS-B
Wed 05:28:55 PM 42.6170 -93.1710 90° East 504 580 39,000  Level FlightAware ADS-B
Wed 05:29:29 PM 42.6170 -93.0640 90° East 503 579 39,000  Level FlightAware ADS-B
Wed 05:29:35 PM 42.6166 -93.0496 92° East 503 579 39,000  Level FlightAware ADS-B (LPVM)
Wed 05:30:05 PM 42.6160 -92.9570 90° East 502 578 39,000  Level FlightAware ADS-B
Wed 05:30:40 PM 42.6160 -92.8450 90° East 500 575 39,000  Level FlightAware ADS-B
Wed 05:31:17 PM 42.6160 -92.7310 90° East 499 574 39,000  Level FlightAware ADS-B
Wed 05:31:49 PM 42.6150 -92.6230 91° East 498 573 39,000  Level FlightAware ADS-B
Wed 05:32:23 PM 42.6150 -92.5190 90° East 498 573 39,000  Level FlightAware ADS-B
Wed 05:32:33 PM 42.6146 -92.4855 91° East 498 573 39,000  Level FlightAware ADS-B (LPVM)
Wed 05:33:03 PM 42.6140 -92.3990 91° East 499 574 39,000  Level FlightAware ADS-B
Wed 05:33:05 PM 42.6140 -92.3850 90° East 499 574 39,000  Level FlightAware ADS-B (LPVM)
Wed 05:33:40 PM 42.6130 -92.2810 91° East 499 574 39,000  Level FlightAware ADS-B
Wed 05:33:42 PM 42.6132 -92.2704 89° East 499 574 39,000  Level FlightAware ADS-B (LPVM)
Wed 05:34:17 PM 42.6120 -92.1640 91° East 498 573 39,000  Level FlightAware ADS-B
Wed 05:34:52 PM 42.6110 -92.0600 91° East 498 573 39,000  Level FlightAware ADS-B
Wed 05:35:28 PM 42.6100 -91.9430 91° East 498 573 39,000  Level FlightAware ADS-B
Wed 05:35:59 PM 42.6090 -91.8450 91° East 499 574 39,000  Level FlightAware ADS-B
Wed 05:36:06 PM 42.6088 -91.8207 91° East 498 573 39,000  Level FlightAware ADS-B (LPVM)
Wed 05:36:37 PM 42.6080 -91.7280 91° East 499 574 39,000  Level FlightAware ADS-B
Wed 05:37:13 PM 42.6060 -91.6180 91° East 499 574 39,000  Level FlightAware ADS-B
Wed 05:37:45 PM 42.6050 -91.5190 91° East 499 574 39,000  Level FlightAware ADS-B
Wed 05:38:11 PM 42.6035 -91.4312 91° East 498 573 39,000  Level FlightAware ADS-B (LPVM)
Wed 05:38:46 PM 42.6018 -91.3223 91° East 498 573 39,000  Level FlightAware ADS-B (LPVM)
Wed 05:39:19 PM 42.6001 -91.2183 91° East 498 573 39,000  Level FlightAware ADS-B (LPVM)
Wed 05:39:59 PM 42.5979 -91.0945 91° East 497 572 39,000  Level FlightAware ADS-B (LPVM)
Wed 05:40:41 PM 42.5960 -90.9680 91° East 496 571 39,000  Level FlightAware ADS-B
Wed 05:41:17 PM 42.5930 -90.8540 92° East 495 570 39,000  Level FlightAware ADS-B
Wed 05:41:52 PM 42.5910 -90.7430 91° East 494 568 39,000  Level FlightAware ADS-B
Wed 05:42:26 PM 42.5890 -90.6410 91° East 491 565 39,000  Level FlightAware ADS-B
Wed 05:42:51 PM 42.5878 -90.5935 92° East 490 564 39,000  Level FlightAware ADS-B (LPVM)
Wed 05:43:34 PM 42.5840 -90.4330 92° East 489 563 39,000  Level FlightAware ADS-B
Wed 05:44:13 PM 42.5810 -90.3160 92° East 487 560 39,000  Level FlightAware ADS-B
Wed 05:44:50 PM 42.5780 -90.2020 92° East 485 558 39,000  Level FlightAware ADS-B
Wed 05:45:22 PM 42.5760 -90.1030 92° East 484 557 39,000  Level FlightAware ADS-B
Wed 05:45:57 PM 42.5730 -89.9970 92° East 483 556 39,000  Level FlightAware ADS-B
Wed 05:46:31 PM 42.5700 -89.8960 92° East 483 556 39,000  Level FlightAware ADS-B
Wed 05:47:04 PM 42.5670 -89.7980 92° East 483 556 39,000  Level FlightAware ADS-B
Wed 05:47:45 PM 42.5630 -89.6740 92° East 482 555 39,000  Level FlightAware ADS-B
Wed 05:48:17 PM 42.5600 -89.5740 92° East 482 555 39,000  Level FlightAware ADS-B
Wed 05:48:54 PM 42.5570 -89.4630 92° East 482 555 39,000  Level FlightAware ADS-B
Wed 05:49:29 PM 42.5530 -89.3580 93° East 482 555 39,000  Level FlightAware ADS-B
Wed 05:50:01 PM 42.5500 -89.2620 92° East 483 556 39,000  Level FlightAware ADS-B
Wed 05:50:37 PM 42.5460 -89.1540 93° East 484 557 39,000  Level FlightAware ADS-B
Wed 05:51:15 PM 42.5420 -89.0380 93° East 484 557 39,000  Level FlightAware ADS-B
Wed 05:51:46 PM 42.5390 -88.9450 92° East 484 557 39,000  Level FlightAware ADS-B
Wed 05:52:22 PM 42.5350 -88.8360 93° East 484 557 39,000  Level FlightAware ADS-B
Wed 05:52:57 PM 42.5310 -88.7300 93° East 485 558 39,000  Level FlightAware ADS-B
Wed 05:53:34 PM 42.5260 -88.6190 93° East 486 559 39,000  Level FlightAware ADS-B
Wed 05:54:06 PM 42.5220 -88.5200 93° East 487 560 39,000  Level FlightAware ADS-B
Wed 05:54:43 PM 42.5180 -88.4080 93° East 488 562 39,000  Level FlightAware ADS-B
Wed 05:55:20 PM 42.5130 -88.2940 93° East 490 564 39,000  Level FlightAware ADS-B
Wed 05:55:51 PM 42.5090 -88.2020 93° East 490 564 39,000  Level FlightAware ADS-B
Wed 05:56:28 PM 42.5040 -88.0880 93° East 491 565 39,000  Level FlightAware ADS-B
Wed 05:57:04 PM 42.5010 -87.9780 92° East 493 567 39,000  Level FlightAware ADS-B
Wed 05:57:35 PM 42.5000 -87.8810 91° East 494 568 39,000  Level FlightAware ADS-B
Wed 05:58:20 PM 42.5000 -87.7420 90° East 497 572 39,000  Level FlightAware ADS-B
Wed 05:58:55 PM 42.4990 -87.6340 91° East 499 574 39,000  Level FlightAware ADS-B
Wed 05:59:29 PM 42.4990 -87.5260 90° East 501 577 39,000  Level FlightAware ADS-B
Wed 06:00:04 PM 42.4990 -87.4220 90° East 501 577 39,000  Level FlightAware ADS-B
Wed 06:00:38 PM 42.4980 -87.3170 91° East 501 577 39,000  Level FlightAware ADS-B
Wed 06:01:14 PM 42.4970 -87.1980 91° East 500 575 39,000  Level FlightAware ADS-B
Wed 06:01:52 PM 42.4970 -87.0790 90° East 499 574 39,000  Level FlightAware ADS-B
Wed 06:02:22 PM 42.4960 -86.9840 91° East 499 574 39,000  Level FlightAware ADS-B
Wed 06:03:02 PM 42.4950 -86.8690 91° East 499 574 39,000  Level FlightAware ADS-B
Wed 06:03:36 PM 42.4940 -86.7590 91° East 498 573 39,000  Level FlightAware ADS-B
Wed 06:04:06 PM 42.4930 -86.6650 91° East 497 572 39,000  Level FlightAware ADS-B
Wed 06:04:47 PM 42.4910 -86.5380 91° East 492 566 39,000  Level FlightAware ADS-B
Wed 06:05:22 PM 42.4900 -86.4340 91° East 491 565 39,000  Level FlightAware ADS-B
Wed 06:06:02 PM 42.4880 -86.3090 91° East 488 562 39,000  Level FlightAware ADS-B
Wed 06:06:30 PM 42.4870 -86.2270 91° East 487 560 39,000  Level FlightAware ADS-B
Wed 06:07:06 PM 42.4850 -86.1160 91° East 486 559 39,000  Level FlightAware ADS-B
Wed 06:07:40 PM 42.4830 -86.0180 92° East 485 558 39,000  Level FlightAware ADS-B
Wed 06:08:18 PM 42.4810 -85.9000 91° East 484 557 39,000  Level FlightAware ADS-B
Wed 06:08:51 PM 42.4790 -85.7970 91° East 483 556 39,000  Level FlightAware ADS-B
Wed 06:09:26 PM 42.4770 -85.6910 91° East 482 555 39,000  Level FlightAware ADS-B
Wed 06:10:03 PM 42.4750 -85.5780 91° East 482 555 39,000  Level FlightAware ADS-B
Wed 06:10:38 PM 42.4730 -85.4730 91° East 483 556 39,000  Level FlightAware ADS-B
Wed 06:11:20 PM 42.4700 -85.3460 92° East 483 556 39,000  Level FlightAware ADS-B
Wed 06:11:55 PM 42.4680 -85.2410 91° East 484 557 39,000  Level FlightAware ADS-B
Wed 06:12:26 PM 42.4650 -85.1490 93° East 483 556 39,000  Level FlightAware ADS-B
Wed 06:13:03 PM 42.4630 -85.0430 91° East 483 556 39,000  Level FlightAware ADS-B
Wed 06:13:37 PM 42.4600 -84.9350 92° East 483 556 39,000  Level FlightAware ADS-B
Wed 06:14:13 PM 42.4570 -84.8240 92° East 482 555 39,000  Level FlightAware ADS-B
Wed 06:14:56 PM 42.4530 -84.6930 92° East 482 555 39,000  Level FlightAware ADS-B
Wed 06:15:29 PM 42.4510 -84.6030 92° East 482 555 39,000  Level FlightAware ADS-B
Wed 06:16:05 PM 42.4470 -84.4900 93° East 482 555 39,000  Level FlightAware ADS-B
Wed 06:16:41 PM 42.4440 -84.3820 92° East 482 555 39,000  Level FlightAware ADS-B
Wed 06:17:17 PM 42.4410 -84.2750 92° East 483 556 39,000  Level FlightAware ADS-B
Wed 06:17:50 PM 42.4370 -84.1700 93° East 483 556 39,000  Level FlightAware ADS-B
Wed 06:18:26 PM 42.4340 -84.0640 92° East 484 557 39,000  Level FlightAware ADS-B
Wed 06:19:00 PM 42.4300 -83.9570 93° East 485 558 39,000  Level FlightAware ADS-B
Wed 06:19:38 PM 42.4260 -83.8450 93° East 484 557 39,000  Level FlightAware ADS-B
Wed 06:20:10 PM 42.4220 -83.7490 93° East 475 547 39,000  Level FlightAware ADS-B
Wed 06:20:46 PM 42.4180 -83.6430 93° East 470 541 39,000  Level FlightAware ADS-B
Wed 06:21:22 PM 42.4140 -83.5400 93° East 471 542 39,000  Level FlightAware ADS-B
Wed 06:21:56 PM 42.4100 -83.4350 93° East 473 544 39,000  Level FlightAware ADS-B
Wed 06:22:32 PM 42.4060 -83.3320 93° East 469 540 39,000  Level FlightAware ADS-B
Wed 06:23:04 PM 42.4020 -83.2360 93° East 465 535 39,000  Level FlightAware ADS-B
Wed 06:23:42 PM 42.3980 -83.1280 93° East 462 532 39,000  Level FlightAware ADS-B
Wed 06:24:14 PM 42.3940 -83.0360 93° East 460 529 39,000  Level FlightAware ADS-B
Wed 06:24:48 PM 42.3900 -82.9390 93° East 460 529 39,000  Level FlightAware ADS-B
Wed 06:25:26 PM 42.3850 -82.8320 94° East 459 528 39,000  Level FlightAware ADS-B
Wed 06:26:02 PM 42.3800 -82.7270 94° East 460 529 39,000  Level FlightAware ADS-B
Wed 06:26:38 PM 42.3760 -82.6250 93° East 461 531 39,000  Level FlightAware ADS-B
Wed 06:27:10 PM 42.3720 -82.5310 93° East 462 532 39,000  Level FlightAware ADS-B
Wed 06:27:47 PM 42.3680 -82.4260 93° East 464 534 39,000  Level FlightAware ADS-B
Wed 06:28:20 PM 42.3640 -82.3290 93° East 465 535 39,000  Level FlightAware ADS-B
Wed 06:28:54 PM 42.3600 -82.2280 93° East 466 536 39,000  Level FlightAware ADS-B
Wed 06:29:32 PM 42.3560 -82.1200 93° East 468 539 39,000  Level FlightAware ADS-B
Wed 06:30:19 PM 42.3500 -81.9860 93° East 470 541 39,000  Level FlightAware ADS-B
Wed 06:30:56 PM 42.3450 -81.8730 93° East 471 542 39,000  Level FlightAware ADS-B
Wed 06:31:28 PM 42.3410 -81.7780 93° East 472 543 39,000  Level FlightAware ADS-B
Wed 06:32:03 PM 42.3360 -81.6750 94° East 473 544 39,000  Level FlightAware ADS-B
Wed 06:32:42 PM 42.3300 -81.5620 94° East 473 544 39,000  Level FlightAware ADS-B
Wed 06:33:14 PM 42.3260 -81.4660 93° East 474 545 39,000  Level FlightAware ADS-B
Wed 06:33:49 PM 42.3210 -81.3640 94° East 474 545 39,000  Level FlightAware ADS-B
Wed 06:34:26 PM 42.3160 -81.2550 94° East 474 545 39,000  Level FlightAware ADS-B
Wed 06:34:58 PM 42.3110 -81.1610 94° East 474 545 39,000  Level FlightAware ADS-B
Wed 06:35:34 PM 42.3050 -81.0560 94° East 474 545 39,000  Level FlightAware ADS-B
Wed 06:36:10 PM 42.3000 -80.9490 94° East 473 544 39,000  Level FlightAware ADS-B
Wed 06:36:46 PM 42.2940 -80.8430 94° East 472 543 39,000  Level FlightAware ADS-B
Wed 06:37:19 PM 42.2890 -80.7470 94° East 471 542 39,000  Level FlightAware ADS-B
Wed 06:37:56 PM 42.2830 -80.6410 94° East 470 541 39,000  Level FlightAware ADS-B
Wed 06:38:29 PM 42.2780 -80.5430 94° East 470 541 39,000  Level FlightAware ADS-B
Wed 06:39:03 PM 42.2720 -80.4420 95° East 469 540 39,000  Level FlightAware ADS-B
Wed 06:39:40 PM 42.2660 -80.3380 94° East 469 540 39,000  Level FlightAware ADS-B
Wed 06:40:12 PM 42.2600 -80.2420 95° East 468 539 39,000  Level FlightAware ADS-B
Wed 06:40:50 PM 42.2540 -80.1330 94° East 467 537 39,000  Level FlightAware ADS-B
Wed 06:41:24 PM 42.2480 -80.0340 95° East 466 536 39,000  Level FlightAware ADS-B
Wed 06:42:01 PM 42.2410 -79.9270 95° East 465 535 39,000  Level FlightAware ADS-B
Wed 06:42:33 PM 42.2360 -79.8340 94° East 464 534 39,000  Level FlightAware ADS-B
Wed 06:43:10 PM 42.2290 -79.7310 95° East 462 532 39,000  Level FlightAware ADS-B
Wed 06:43:45 PM 42.2220 -79.6270 95° East 461 531 39,000  Level FlightAware ADS-B
Wed 06:44:22 PM 42.2160 -79.5240 94° East 459 528 39,000  Level FlightAware ADS-B
Wed 06:44:54 PM 42.2100 -79.4320 95° East 458 527 39,000  Level FlightAware ADS-B
Wed 06:45:31 PM 42.2030 -79.3290 95° East 458 527 39,000  Level FlightAware ADS-B
Wed 06:46:06 PM 42.1960 -79.2270 95° East 458 527 39,000  Level FlightAware ADS-B
Wed 06:46:39 PM 42.1890 -79.1410 96° East 460 529 39,000  Level FlightAware ADS-B
Wed 06:47:23 PM 42.1620 -79.0120 106° East 464 534 39,000  Level FlightAware ADS-B
Wed 06:47:55 PM 42.1400 -78.9250 109° East 463 533 39,000  Level FlightAware ADS-B
Wed 06:48:33 PM 42.1140 -78.8200 108° East 463 533 39,000  Level FlightAware ADS-B
Wed 06:49:05 PM 42.0910 -78.7330 110° East 464 534 39,000  Level FlightAware ADS-B
Wed 06:49:41 PM 42.0670 -78.6380 109° East 464 534 39,000  Level FlightAware ADS-B
Wed 06:50:17 PM 42.0420 -78.5360 108° East 464 534 39,000  Level FlightAware ADS-B
Wed 06:50:50 PM 42.0200 -78.4500 109° East 465 535 39,000  Level FlightAware ADS-B
Wed 06:51:27 PM 41.9930 -78.3470 109° East 465 535 39,000  Level FlightAware ADS-B
Wed 06:52:03 PM 41.9690 -78.2540 109° East 464 534 39,000  Level FlightAware ADS-B
Wed 06:52:39 PM 41.9420 -78.1490 109° East 464 534 39,000  Level FlightAware ADS-B
Wed 06:53:11 PM 41.9200 -78.0640 109° East 463 533 39,000  Level FlightAware ADS-B
Wed 06:53:47 PM 41.8950 -77.9660 109° East 463 533 39,000  Level FlightAware ADS-B
Wed 06:54:23 PM 41.8700 -77.8700 109° East 463 533 39,000  Level FlightAware ADS-B
Wed 06:54:59 PM 41.8440 -77.7700 109° East 462 532 39,000  Level FlightAware ADS-B
Wed 06:55:31 PM 41.8210 -77.6840 110° East 462 532 39,000  Level FlightAware ADS-B
Wed 06:56:09 PM 41.7940 -77.5810 109° East 461 531 39,000  Level FlightAware ADS-B
Wed 06:56:41 PM 41.7710 -77.4970 110° East 461 531 39,000  Level FlightAware ADS-B
Wed 06:57:17 PM 41.7460 -77.4020 109° East 461 531 39,000  Level FlightAware ADS-B
Wed 06:57:53 PM 41.7190 -77.3020 110° East 462 532 39,000  Level FlightAware ADS-B
Wed 06:58:29 PM 41.6930 -77.2060 110° East 462 532 39,000  Level FlightAware ADS-B
Wed 06:59:01 PM 41.6700 -77.1200 110° East 462 532 39,000  Level FlightAware ADS-B
Wed 06:59:37 PM 41.6450 -77.0250 109° East 461 531 39,000  Level FlightAware ADS-B
Wed 07:00:09 PM 41.6210 -76.9400 111° Southeast 461 531 39,000  Level FlightAware ADS-B
Wed 07:00:52 PM 41.5920 -76.8320 110° East 461 531 39,000  Level FlightAware ADS-B
Wed 07:01:27 PM 41.5660 -76.7380 110° East 461 531 39,000  Level FlightAware ADS-B
Wed 07:02:12 PM 41.5330 -76.6160 110° East 463 533 39,000  Level FlightAware ADS-B
Wed 07:02:42 PM 41.5120 -76.5400 110° East 463 533 39,000  Level FlightAware ADS-B
Wed 07:03:12 PM 41.4900 -76.4600 110° East 463 533 39,000  Level FlightAware ADS-B
Wed 07:03:57 PM 41.4540 -76.3330 111° Southeast 463 533 39,000 -439 Level FlightAware ADS-B
Wed 07:04:34 PM 41.4270 -76.2350 110° East 466 536 38,400 -1,818 Descending FlightAware ADS-B
Wed 07:05:03 PM 41.4040 -76.1520 110° East 472 543 37,000 -2,866 Descending FlightAware ADS-B
Wed 07:05:41 PM 41.3750 -76.0480 110° East 479 551 35,200 -2,763 Descending FlightAware ADS-B
Wed 07:06:19 PM 41.3450 -75.9430 111° Southeast 480 552 33,500 -2,696 Descending FlightAware ADS-B
Wed 07:06:50 PM 41.3210 -75.8600 111° Southeast 478 550 32,100 -2,719 Descending FlightAware ADS-B
Wed 07:07:23 PM 41.2950 -75.7680 111° Southeast 475 547 30,600 -2,959 Descending FlightAware ADS-B
Wed 07:08:03 PM 41.2620 -75.6580 112° Southeast 476 548 28,500 -3,000 Descending FlightAware ADS-B
Wed 07:08:35 PM 41.2340 -75.5720 113° Southeast 475 547 27,000 -2,735 Descending FlightAware ADS-B
Wed 07:09:11 PM 41.2020 -75.4770 114° Southeast 467 537 25,400 -2,559 Descending FlightAware ADS-B
Wed 07:09:43 PM 41.1750 -75.3970 114° Southeast 456 525 24,100 -1,944 Descending FlightAware ADS-B
Wed 07:10:22 PM 41.1420 -75.3000 114° Southeast 450 518 23,100 -943 Descending FlightAware ADS-B
Wed 07:10:53 PM 41.1160 -75.2230 114° Southeast 450 518 23,000 -83 Descending FlightAware ADS-B
Wed 07:11:34 PM 41.0810 -75.1170 114° Southeast 450 518 23,000  Level FlightAware ADS-B
Wed 07:12:06 PM 41.0530 -75.0350 114° Southeast 450 518 23,000  Level FlightAware ADS-B
Wed 07:12:42 PM 41.0220 -74.9450 115° Southeast 450 518 23,000  Level FlightAware ADS-B
Wed 07:13:14 PM 40.9990 -74.8640 111° Southeast 450 518 23,000 -265 Level FlightAware ADS-B
Wed 07:13:50 PM 40.9840 -74.7680 102° East 446 513 22,700 -1,167 Descending FlightAware ADS-B
Wed 07:14:26 PM 40.9740 -74.6700 98° East 431 496 21,600 -2,167 Descending FlightAware ADS-B
Wed 07:15:02 PM 40.9640 -74.5790 98° East 423 487 20,100 -2,083 Descending FlightAware ADS-B
Wed 07:15:38 PM 40.9540 -74.4870 98° East 419 482 19,100 -930 Descending FlightAware ADS-B
Wed 07:16:13 PM 40.9450 -74.4030 98° East 417 480 19,000 -83 Descending FlightAware ADS-B
Wed 07:16:50 PM 40.9310 -74.3050 101° East 400 460 19,000  Level FlightAware ADS-B
Wed 07:17:09 PM 40.9180 -74.2680 115° Southeast 380 437 19,000  Level FlightAware ADS-B
Wed 07:17:45 PM 40.8820 -74.2040 127° Southeast 340 391 19,000 -583 Level FlightAware ADS-B
Wed 07:18:21 PM 40.8474 -74.1458 128° Southeast 326 375 18,300 -1,258 Descending FlightAware ADS-B
Wed 07:18:47 PM 40.8234 -74.1061 129° Southeast 323 372 17,700 -1,412 Descending FlightAware ADS-B
Wed 07:18:55 PM 40.8134 -74.0949 140° Southeast 322 371 17,500 -1,440 Descending FlightAware ADS-B
Wed 07:19:12 PM 40.7909 -74.0814 156° South 320 368 17,100 -1,615 Descending FlightAware ADS-B
Wed 07:19:47 PM 40.7411 -74.0670 168° South 320 368 16,100 -2,071 Descending FlightAware ADS-B
Wed 07:20:36 PM 40.6709 -74.0471 168° South 311 358 14,200 -2,114 Descending FlightAware ADS-B
Wed 07:21:15 PM 40.6170 -74.0310 167° South 310 357 13,000 -1,268 Descending FlightAware ADS-B
Wed 07:21:47 PM 40.5730 -74.0180 167° South 310 357 12,700 -265 Descending FlightAware ADS-B
Wed 07:22:23 PM 40.5220 -74.0020 167° South 306 352 12,700  Level FlightAware ADS-B
Wed 07:22:59 PM 40.4730 -73.9880 168° South 304 350 12,700 -250 Level FlightAware ADS-B
Wed 07:23:35 PM 40.4250 -73.9680 162° South 301 346 12,400 -882 Descending FlightAware ADS-B
Wed 07:24:07 PM 40.3840 -73.9460 158° South 304 350 11,700 -1,412 Descending FlightAware ADS-B
Wed 07:24:43 PM 40.3370 -73.9210 158° South 303 349 10,800 -833 Descending FlightAware ADS-B
Wed 07:25:19 PM 40.2890 -73.8960 158° South 304 350 10,700 -500 Descending FlightAware ADS-B
Wed 07:25:31 PM 40.2740 -73.8860 153° Southeast 300 345 10,400 -1,500 Descending FlightAware ADS-B
Wed 07:25:39 PM 40.2670 -73.8780 139° Southeast 296 341 10,200 -1,500 Descending FlightAware ADS-B
Wed 07:25:47 PM 40.2590 -73.8660 131° Southeast 294 338 10,000 -1,500 Descending FlightAware ADS-B
Wed 07:25:59 PM 40.2500 -73.8490 125° Southeast 293 337 9,700 -1,429 Descending FlightAware ADS-B
Wed 07:26:08 PM 40.2460 -73.8340 109° East 292 336 9,500 -1,200 Descending FlightAware ADS-B
Wed 07:26:24 PM 40.2380 -73.8080 112° Southeast 290 334 9,200 -1,167 Descending FlightAware ADS-B
Wed 07:26:44 PM 40.2300 -73.7750 108° East 287 330 8,800 -1,200 Descending FlightAware ADS-B
Wed 07:27:04 PM 40.2220 -73.7420 108° East 284 327 8,400 -1,273 Descending FlightAware ADS-B
Wed 07:27:17 PM 40.2190 -73.7200 100° East 282 325 8,100 -1,371 Descending FlightAware ADS-B
Wed 07:27:39 PM 40.2290 -73.6860 69° East 276 318 7,600 -1,200 Descending FlightAware ADS-B
Wed 07:27:47 PM 40.2350 -73.6780 46° Northeast 277 319 7,500 -1,500 Descending FlightAware ADS-B
Wed 07:27:51 PM 40.2400 -73.6730 37° Northeast 276 318 7,300 -1,448 Descending FlightAware ADS-B
Wed 07:28:16 PM 40.2630 -73.6510 36° Northeast 275 316 6,800 -1,364 Descending FlightAware ADS-B
Wed 07:28:35 PM 40.2860 -73.6300 35° Northeast 275 316 6,300 -1,459 Descending FlightAware ADS-B
Wed 07:28:53 PM 40.3030 -73.6130 37° Northeast 275 316 5,900 -1,200 Descending FlightAware ADS-B
Wed 07:29:10 PM 40.3210 -73.5970 34° Northeast 274 315 5,600 -1,304 Descending FlightAware ADS-B
Wed 07:29:39 PM 40.3540 -73.5740 28° Northeast 274 315 4,900 -1,347 Descending FlightAware ADS-B
Wed 07:29:59 PM 40.3770 -73.5590 26° Northeast 273 314 4,500 -1,167 Descending FlightAware ADS-B
Wed 07:30:15 PM 40.3940 -73.5480 26° Northeast 271 312 4,200 -1,235 Descending FlightAware ADS-B
Wed 07:30:33 PM 40.4160 -73.5340 26° Northeast 269 310 3,800 -1,000 Descending FlightAware ADS-B
Wed 07:30:45 PM 40.4270 -73.5270 26° Northeast 270 311 3,700 -194 Descending FlightAware ADS-B
Wed 07:31:04 PM 40.4470 -73.5130 28° Northeast 271 312 3,700  Level FlightAware ADS-B
Wed 07:31:30 PM 40.4760 -73.4950 25° Northeast 270 311 3,700  Level FlightAware ADS-B
Wed 07:31:50 PM 40.5020 -73.4770 28° Northeast 270 311 3,700  Level FlightAware ADS-B
Wed 07:32:11 PM 40.5250 -73.4620 26° Northeast 269 310 3,700  Level FlightAware ADS-B
Wed 07:32:31 PM 40.5480 -73.4470 26° Northeast 260 299 3,700  Level FlightAware ADS-B
Wed 07:32:51 PM 40.5690 -73.4340 25° Northeast 243 280 3,700  Level FlightAware ADS-B
Wed 07:33:09 PM 40.5860 -73.4240 24° Northeast 229 264 3,700 231 Level FlightAware ADS-B
Wed 07:33:17 PM 40.5950 -73.4230 North 227 261 3,800  Climbing FlightAware ADS-B
Wed 07:33:45 PM 40.6230 -73.4250 357° North 228 262 3,700 -125 Descending FlightAware ADS-B
Wed 07:34:05 PM 40.6450 -73.4270 356° North 227 261 3,700  Level FlightAware ADS-B
Wed 07:34:13 PM 40.6530 -73.4300 344° North 224 258 3,700 -500 Level FlightAware ADS-B
Wed 07:34:17 PM 40.6570 -73.4330 330° Northwest 222 255 3,600 -1,000 Descending FlightAware ADS-B
Wed 07:34:25 PM 40.6630 -73.4400 318° Northwest 218 251 3,500 -667 Descending FlightAware ADS-B
Wed 07:34:44 PM 40.6770 -73.4560 319° Northwest 218 251 3,300 -833 Descending FlightAware ADS-B
Wed 07:35:01 PM 40.6900 -73.4720 317° Northwest 217 250 3,000 -811 Descending FlightAware ADS-B
Wed 07:35:21 PM 40.7050 -73.4890 319° Northwest 214 246 2,800 -563 Descending FlightAware ADS-B
Wed 07:35:33 PM 40.7140 -73.5000 317° Northwest 213 245 2,700 -176 Descending FlightAware ADS-B
Wed 07:35:55 PM 40.7290 -73.5190 316° Northwest 217 250 2,700  Level FlightAware ADS-B
Wed 07:36:17 PM 40.7460 -73.5390 318° Northwest 215 247 2,700 -343 Level FlightAware ADS-B
Wed 07:36:30 PM 40.7550 -73.5500 317° Northwest 213 245 2,500 -1,235 Descending FlightAware ADS-B
Wed 07:36:51 PM 40.7700 -73.5680 318° Northwest 211 243 2,000 -1,371 Descending FlightAware ADS-B
Wed 07:37:05 PM 40.7810 -73.5810 318° Northwest 206 237 1,700 -514 Descending FlightAware ADS-B
Wed 07:37:26 PM 40.7940 -73.5960 319° Northwest 173 199 1,700 222 Level FlightAware ADS-B
Wed 07:37:32 PM 40.7970 -73.6000 315° West 166 191 1,800 462 Climbing FlightAware ADS-B
Wed 07:37:39 PM 40.7990 -73.6070 291° West 160 184 1,800  Level FlightAware ADS-B
Wed 07:37:43 PM 40.7990 -73.6100 270° West 157 181 1,800 -200 Level FlightAware ADS-B
Wed 07:38:09 PM 40.7930 -73.6340 252° West 156 180 1,700 -188 Descending FlightAware ADS-B
Wed 07:38:15 PM 40.7900 -73.6370 217° Southwest 156 180 1,700  Level FlightAware ADS-B
Wed 07:38:38 PM 40.7770 -73.6520 221° Southwest 156 180 1,700  Level FlightAware ADS-B
Wed 07:38:57 PM 40.7650 -73.6620 212° Southwest 157 181 1,700  Level FlightAware ADS-B
Wed 07:39:18 PM 40.7530 -73.6710 210° Southwest 156 180 1,700  Level FlightAware ADS-B
Wed 07:39:41 PM 40.7370 -73.6830 210° Southwest 156 180 1,700  Level FlightAware ADS-B
Wed 07:39:53 PM 40.7300 -73.6880 208° Southwest 158 182 1,700 -545 Level FlightAware ADS-B
Wed 07:40:14 PM 40.7170 -73.6990 213° Southwest 153 176 1,400 -811 Descending FlightAware ADS-B
Wed 07:40:30 PM 40.7090 -73.7050 210° Southwest 143 165 1,200 -686 Descending FlightAware ADS-B
Wed 07:40:49 PM 40.6970 -73.7140 210° Southwest 126 145 1,000 -727 Descending FlightAware ADS-B
Wed 07:41:03 PM 40.6910 -73.7190 212° Southwest 120 138 800 -649 Descending FlightAware ADS-B
Wed 07:41:26 PM 40.6800 -73.7280 212° Southwest 119 137 600 -545 Descending FlightAware ADS-B
Wed 07:41:47 PM 40.6700 -73.7350 208° Southwest 120 138 400 -732 Descending FlightAware ADS-B
Wed 07:42:07 PM 40.6610 -73.7430 214° Southwest 120 138 100 -900 Descending FlightAware ADS-B
Wed 07:42:19 PM 40.6550 -73.7470 207° Southwest 118 136 -500 Descending FlightAware ADS-B
Wed 07:42:43 PM 40.6430 -73.7560 210° Southwest 118 136  Level FlightAware ADS-B
Wed 07:43:04 PM 40.6350 -73.7630 214° Southwest 80 92  Level FlightAware ADS-B

Login

Don't have an account? Register now (free) for customized features, flight alerts, and more!